Flight Track Log - Related Links

Times and Time Zones

All times are in EDT time to prevent confusion due to time zone crossing. See the PDT4147 flight status page for this flight to view local times or setup timezone preferences in your user account.

Time Position Orientation Groundspeed Altitude Reporting Facility
EDT Latitude Longitude Course Direction KTS MPH feet Rate Location/Type
Sun 04:42:00 PM 37.1592 -79.9858 195° South  Level FlightAware Approximate
Sun 04:43:00 PM 37.1079 -80.0044 202° Southwest  Level FlightAware Approximate
Sun 04:44:00 PM 37.0573 -80.0254 195° South  Level FlightAware Approximate
Sun 04:45:00 PM 37.0047 -80.0333 180° South  Level FlightAware Approximate
Sun 04:46:00 PM 36.9426 -80.0315 176° South  Level FlightAware Approximate
Sun 04:47:00 PM 36.8806 -80.0267 176° South  Level FlightAware Approximate
Sun 04:48:00 PM 36.8186 -80.0219 176° South  Level FlightAware Approximate
Sun 04:49:00 PM 36.7566 -80.0172 176° South  Level FlightAware Approximate
Sun 04:50:00 PM 36.6945 -80.0153 177° South  Level FlightAware Approximate
Sun 04:51:00 PM 36.6325 -80.0114 177° South  Level FlightAware Approximate
Sun 04:52:00 PM 36.5704 -80.0075 177° South  Level FlightAware Approximate
Sun 04:53:00 PM 36.5084 -80.0036 177° South  Level FlightAware Approximate
Sun 04:54:00 PM 36.4464 -79.9995 174° South  Level FlightAware Approximate
Sun 04:55:00 PM 36.3845 -79.9918 174° South  Level FlightAware Approximate
Sun 04:56:00 PM 36.3227 -79.9841 174° South  Level FlightAware Approximate
Sun 04:57:00 PM 36.2607 -79.9800 177° South  Level FlightAware Approximate
Sun 04:58:00 PM 36.1987 -79.9764 177° South  Level FlightAware Approximate
Sun 04:59:00 PM 36.1366 -79.9727 177° South  Level FlightAware Approximate
Sun 05:00:00 PM 36.0746 -79.9691 177° South  Level FlightAware Approximate
Sun 05:01:00 PM 36.0199 -79.9863 230° Southwest  Level FlightAware Approximate
Sun 05:02:00 PM 35.9797 -80.0449 230° Southwest  Level FlightAware Approximate
Sun 05:03:00 PM 35.9395 -80.1034 230° Southwest  Level FlightAware Approximate
Sun 05:04:00 PM 35.8993 -80.1618 230° Southwest  Level FlightAware Approximate
Sun 05:05:00 PM 35.8590 -80.2202 230° Southwest  Level FlightAware Approximate
Sun 05:06:00 PM 35.8162 -80.2757 225° Southwest  Level FlightAware Approximate
Sun 05:07:00 PM 35.7729 -80.3306 227° Southwest  Level FlightAware Approximate
Sun 05:07:05 PM 35.9306 -80.3742 228° Southwest 233 268 10,000  Level Atlanta Center
Sun 05:08:00 PM 35.7308 -80.3868 227° Southwest  Level FlightAware Approximate
Sun 05:08:00 PM 35.8775 -80.4125 210° Southwest 239 275 9,100  Level Atlanta Center
Sun 05:09:00 PM 35.6886 -80.4430 227° Southwest  Level FlightAware Approximate
Sun 05:09:07 PM 35.8097 -80.4539 206° Southwest 237 273 9,000  Level Atlanta Center
Sun 05:10:00 PM 35.6447 -80.4969 228° Southwest  Level FlightAware Approximate
Sun 05:10:02 PM 35.7567 -80.4869 207° Southwest 232 267 9,000  Level Atlanta Center
Sun 05:11:00 PM 35.6034 -80.5538 228° Southwest  Level FlightAware Approximate
Sun 05:11:09 PM 35.6975 -80.5356 214° Southwest 234 269 9,000  Level Atlanta Center
Sun 05:12:00 PM 35.5619 -80.6108 228° Southwest  Level FlightAware Approximate
Sun 05:12:04 PM 35.6486 -80.5758 214° Southwest 234 269 9,000  Level Atlanta Center
Sun 05:13:05 PM 35.5936 -80.6242 216° Southwest 233 268 9,000  Level Atlanta Center
Sun 05:14:06 PM 35.5425 -80.6672 214° Southwest 232 267 9,000  Level Atlanta Center
Sun 05:16:08 PM 35.4367 -80.7608 216° Southwest 225 259 9,000  Level Atlanta Center
Sun 05:17:10 PM 35.3836 -80.8061 215° Southwest 224 258 9,000  Level Atlanta Center
Sun 05:18:11 PM 35.3344 -80.8464 214° Southwest 219 252 9,000  Level Atlanta Center
Sun 05:19:11 PM 35.2758 -80.8333 170° South 202 232 9,000 -189 Level Atlanta Center
Sun 05:20:18 PM 35.2111 -80.8281 176° South 205 236 8,600 -820 Descending Atlanta Center
Sun 05:22:00 PM 35.2130 -80.9119 209° Southwest  Level Estimated
Sun 05:23:27 PM 35.0292 -80.8200 209° Southwest 213 245 5,500  Level Atlanta Center
Sun 05:24:22 PM 34.9769 -80.8194 180° South 199 229 5,000 -466 Descending Atlanta Center
Sun 05:25:23 PM 34.9292 -80.8239 184° South 175 201 4,600 -492 Descending Atlanta Center
Sun 05:26:24 PM 34.8772 -80.8258 182° South 176 203 4,000 -298 Descending Atlanta Center
Sun 05:27:24 PM 34.8272 -80.8303 184° South 172 198 4,000  Level Atlanta Center
Sun 05:28:25 PM 34.7992 -80.8744 232° Southwest 215 247 4,000  Level Atlanta Center
Sun 05:29:26 PM 34.8378 -80.9183 317° Northwest 243 280 4,000  Level Atlanta Center
Sun 05:30:27 PM 34.8958 -80.9036 12° North 207 238 4,000  Level Atlanta Center
Sun 05:31:28 PM 34.9544 -80.9167 350° North 219 252 4,000  Level Atlanta Center
Sun 05:32:29 PM 35.0194 -80.9244 354° North 214 246 4,000 -310 Level Atlanta Center
Sun 05:33:24 PM 35.0694 -80.9250 359° North 216 249 3,400 -873 Descending Atlanta Center
Sun 05:34:19 PM 35.1197 -80.9308 355° North 192 221 2,400 -939 Descending Atlanta Center
Sun 05:35:19 PM 35.1617 -80.9342 356° North 146 168 1,600 -800 Descending Atlanta Center

Login

Don't have an account? Register now (free) for customized features, flight alerts, and more!